createdAt,value
2024-01-27T00:01:02.233Z,55.31
2024-01-27T00:03:29.962Z,55.05
2024-01-27T00:05:58.086Z,55.35
2024-01-27T00:08:26.534Z,55.08
2024-01-27T00:10:54.912Z,55.58
2024-01-27T00:13:23.271Z,55.52
2024-01-27T00:15:51.199Z,55.32
2024-01-27T00:18:18.862Z,55.24
2024-01-27T00:20:47.175Z,54.87
2024-01-27T00:23:14.874Z,55.20
2024-01-27T00:25:42.098Z,54.77
2024-01-27T00:28:09.545Z,55.01
2024-01-27T00:30:38.682Z,55.04
2024-01-27T00:33:06.106Z,54.98
2024-01-27T00:35:34.420Z,55.07
2024-01-27T00:38:02.790Z,55.31
2024-01-27T00:40:30.712Z,55.24
2024-01-27T00:43:00.333Z,54.91
2024-01-27T00:45:31.181Z,54.82
2024-01-27T00:47:59.720Z,55.13
2024-01-27T00:50:28.471Z,54.85
2024-01-27T00:52:59.394Z,55.14
2024-01-27T00:55:30.312Z,55.09
2024-01-27T00:57:58.377Z,55.12
2024-01-27T01:00:27.730Z,55.04
2024-01-27T01:02:56.223Z,54.67
2024-01-27T01:05:26.039Z,55.24
2024-01-27T01:07:54.190Z,55.09
2024-01-27T01:10:23.644Z,54.82
2024-01-27T01:12:53.162Z,55.06
2024-01-27T01:15:20.973Z,54.90
2024-01-27T01:17:51.395Z,55.02
2024-01-27T01:20:20.200Z,55.04
2024-01-27T01:22:47.851Z,54.75
2024-01-27T01:25:15.482Z,55.33
2024-01-27T01:27:43.732Z,54.84
2024-01-27T01:30:12.179Z,55.02
2024-01-27T01:32:40.133Z,54.74
2024-01-27T01:35:07.660Z,54.83
2024-01-27T01:37:35.490Z,54.78
2024-01-27T01:40:04.166Z,54.93
2024-01-27T01:42:31.756Z,54.95
2024-01-27T01:44:59.768Z,54.93
2024-01-27T01:47:27.013Z,54.95
2024-01-27T01:49:55.006Z,54.69
2024-01-27T01:52:23.382Z,55.24
2024-01-27T01:54:51.685Z,54.89
2024-01-27T01:57:19.413Z,55.14
2024-01-27T01:59:49.129Z,55.12
2024-01-27T02:02:17.767Z,54.83
2024-01-27T02:04:48.140Z,54.92
2024-01-27T02:07:16.447Z,55.00
2024-01-27T02:09:45.257Z,55.19
2024-01-27T02:12:12.338Z,55.12
2024-01-27T02:14:39.824Z,55.15
2024-01-27T02:17:08.357Z,55.10
2024-01-27T02:19:35.868Z,54.86
2024-01-27T02:22:04.293Z,55.03
2024-01-27T02:24:32.128Z,54.97
2024-01-27T02:26:59.790Z,55.12
2024-01-27T02:29:29.204Z,54.88
2024-01-27T02:31:57.162Z,55.16
2024-01-27T02:34:25.201Z,55.10
2024-01-27T02:36:53.064Z,55.01
2024-01-27T02:39:20.797Z,54.94
2024-01-27T02:41:48.325Z,55.24
2024-01-27T02:44:15.966Z,55.16
2024-01-27T02:46:45.085Z,55.24
2024-01-27T02:49:12.172Z,55.15
2024-01-27T02:51:39.772Z,55.00
2024-01-27T02:54:08.636Z,55.18
2024-01-27T02:56:36.570Z,54.96
2024-01-27T02:59:03.703Z,54.63
2024-01-27T03:01:31.437Z,54.89
2024-01-27T03:03:58.994Z,55.00
2024-01-27T03:06:27.090Z,54.68
2024-01-27T03:08:55.057Z,54.99
2024-01-27T03:11:23.113Z,54.75
2024-01-27T03:13:51.069Z,54.68
2024-01-27T03:16:21.317Z,54.79
2024-01-27T03:18:49.692Z,54.73
2024-01-27T03:21:17.572Z,54.69
2024-01-27T03:23:45.786Z,54.93
2024-01-27T03:26:13.415Z,54.87
2024-01-27T03:28:41.053Z,54.63
2024-01-27T03:31:09.156Z,54.65
2024-01-27T03:33:36.494Z,55.14
2024-01-27T03:36:04.164Z,54.65
2024-01-27T03:38:31.421Z,54.70
2024-01-27T03:41:00.742Z,55.03
2024-01-27T03:43:28.634Z,54.47
2024-01-27T03:45:56.036Z,54.53
2024-01-27T03:48:24.056Z,54.71
2024-01-27T03:50:52.174Z,54.60
2024-01-27T03:53:21.058Z,54.67
2024-01-27T03:55:48.783Z,54.75
2024-01-27T03:58:16.576Z,54.38
2024-01-27T04:00:46.190Z,54.54
2024-01-27T04:03:13.966Z,54.61
2024-01-27T04:05:42.262Z,54.71
2024-01-27T04:08:10.594Z,54.65
2024-01-27T04:10:38.879Z,54.85
2024-01-27T04:13:06.714Z,54.71
2024-01-27T04:15:39.654Z,54.85
2024-01-27T04:18:10.296Z,54.55
2024-01-27T04:20:39.342Z,54.63
2024-01-27T04:23:06.525Z,54.67
2024-01-27T04:25:33.884Z,54.58
2024-01-27T04:28:01.298Z,54.46
2024-01-27T04:30:29.767Z,54.35
2024-01-27T04:32:57.856Z,54.51
2024-01-27T04:35:25.880Z,54.56
2024-01-27T04:37:54.002Z,54.29
2024-01-27T04:40:21.599Z,54.58
2024-01-27T04:42:48.971Z,54.62
2024-01-27T04:45:16.851Z,54.56
2024-01-27T04:47:44.122Z,54.27
2024-01-27T04:50:12.024Z,54.40
2024-01-27T04:52:40.042Z,54.41
2024-01-27T04:55:09.405Z,54.33
2024-01-27T04:57:36.835Z,54.55
2024-01-27T05:00:11.818Z,54.40
2024-01-27T05:02:42.192Z,54.57
2024-01-27T05:05:13.270Z,54.61
2024-01-27T05:07:40.716Z,54.87
2024-01-27T05:10:12.689Z,54.29
2024-01-27T05:12:40.445Z,54.29
2024-01-27T05:15:10.402Z,54.53
2024-01-27T05:17:37.767Z,54.18
2024-01-27T05:20:06.207Z,54.55
2024-01-27T05:22:37.950Z,54.49
2024-01-27T05:25:06.703Z,54.41
2024-01-27T05:27:34.456Z,54.17
2024-01-27T05:30:01.884Z,54.13
2024-01-27T05:32:30.506Z,54.35
2024-01-27T05:34:58.149Z,54.31
2024-01-27T05:37:25.639Z,54.39
2024-01-27T05:39:54.633Z,54.17
2024-01-27T05:42:24.022Z,54.39
2024-01-27T05:44:51.496Z,54.16
2024-01-27T05:47:18.512Z,53.96
2024-01-27T05:49:46.925Z,53.96
2024-01-27T05:52:24.268Z,53.97
2024-01-27T05:54:55.800Z,54.07
2024-01-27T05:57:23.417Z,53.88
2024-01-27T05:59:50.732Z,54.02
2024-01-27T06:02:19.418Z,53.81
2024-01-27T06:04:47.553Z,53.77
2024-01-27T06:07:15.922Z,53.91
2024-01-27T06:09:43.854Z,53.76
2024-01-27T06:12:11.869Z,53.68
2024-01-27T06:14:39.956Z,54.17
2024-01-27T06:17:09.526Z,53.84
2024-01-27T06:19:37.115Z,54.03
2024-01-27T06:22:06.629Z,54.02
2024-01-27T06:24:35.389Z,53.57
2024-01-27T06:27:03.038Z,53.85
2024-01-27T06:29:30.760Z,53.77
2024-01-27T06:31:58.437Z,53.81
2024-01-27T06:34:26.934Z,53.83
2024-01-27T06:36:54.828Z,53.62
2024-01-27T06:39:23.725Z,53.63
2024-01-27T06:41:52.450Z,53.49
2024-01-27T06:44:20.370Z,53.56
2024-01-27T06:46:51.652Z,53.26
2024-01-27T06:49:19.015Z,53.79
2024-01-27T06:51:47.768Z,53.65
2024-01-27T06:54:15.247Z,53.35
2024-01-27T06:56:43.123Z,53.55
2024-01-27T06:59:11.142Z,53.66
2024-01-27T07:01:39.053Z,53.34
2024-01-27T07:04:08.729Z,53.72
2024-01-27T07:06:36.077Z,53.37
2024-01-27T07:09:04.778Z,53.55
2024-01-27T07:11:33.265Z,53.63
2024-01-27T07:14:01.191Z,53.50
2024-01-27T07:16:28.362Z,53.76
2024-01-27T07:18:56.281Z,53.47
2024-01-27T07:21:24.071Z,53.09
2024-01-27T07:23:51.482Z,53.41
2024-01-27T07:26:25.571Z,53.40
2024-01-27T07:28:57.995Z,53.51
2024-01-27T07:31:28.816Z,53.47
2024-01-27T07:33:56.355Z,53.58
2024-01-27T07:36:23.557Z,53.23
2024-01-27T07:38:50.368Z,53.33
2024-01-27T07:41:17.661Z,53.49
2024-01-27T07:43:45.354Z,53.39
2024-01-27T07:46:12.430Z,53.61
2024-01-27T07:48:39.983Z,53.23
2024-01-27T07:51:07.721Z,53.64
2024-01-27T07:53:35.135Z,53.33
2024-01-27T07:56:05.501Z,53.61
2024-01-27T07:58:35.110Z,53.60
2024-01-27T08:01:02.830Z,53.39
2024-01-27T08:03:31.422Z,53.40
2024-01-27T08:05:59.985Z,53.52
2024-01-27T08:08:29.198Z,53.40
2024-01-27T08:10:56.222Z,53.35
2024-01-27T08:13:24.134Z,53.32
2024-01-27T08:15:54.527Z,53.32
2024-01-27T08:18:22.744Z,53.41
2024-01-27T08:20:51.042Z,53.47
2024-01-27T08:23:18.537Z,53.36
2024-01-27T08:25:48.370Z,53.39
2024-01-27T08:28:15.884Z,53.29
2024-01-27T08:30:45.234Z,53.18
2024-01-27T08:33:13.070Z,53.35
2024-01-27T08:35:42.019Z,53.25
2024-01-27T08:38:10.673Z,53.10
2024-01-27T08:40:40.917Z,53.47
2024-01-27T08:43:11.692Z,53.51
2024-01-27T08:45:40.277Z,53.59
2024-01-27T08:48:08.852Z,53.28
2024-01-27T08:50:36.262Z,53.31
2024-01-27T08:53:03.532Z,53.18
2024-01-27T08:55:31.537Z,53.31
2024-01-27T08:57:59.958Z,53.27
2024-01-27T09:00:27.481Z,53.21
2024-01-27T09:02:56.986Z,53.17
2024-01-27T09:05:24.240Z,53.30
2024-01-27T09:07:51.389Z,53.55
2024-01-27T09:10:19.053Z,53.35
2024-01-27T09:12:46.479Z,53.64
2024-01-27T09:15:13.911Z,53.53
2024-01-27T09:17:43.735Z,53.07
2024-01-27T09:20:11.695Z,53.31
2024-01-27T09:22:39.187Z,53.58
2024-01-27T09:25:07.609Z,53.57
2024-01-27T09:27:35.870Z,53.55
2024-01-27T09:30:04.559Z,53.57
2024-01-27T09:32:32.649Z,53.57
2024-01-27T09:35:01.266Z,53.59
2024-01-27T09:37:29.247Z,53.73
2024-01-27T09:39:57.992Z,53.61
2024-01-27T09:42:25.694Z,53.60
2024-01-27T09:44:59.046Z,53.73
2024-01-27T09:47:27.937Z,53.44
2024-01-27T09:49:55.416Z,53.81
2024-01-27T09:52:23.455Z,53.87
2024-01-27T09:54:51.675Z,53.81
2024-01-27T09:57:22.062Z,53.79
2024-01-27T09:59:51.197Z,54.14
2024-01-27T10:02:20.486Z,53.71
2024-01-27T10:04:49.812Z,53.62
2024-01-27T10:07:18.540Z,53.85
2024-01-27T10:09:51.198Z,53.88
2024-01-27T10:12:24.490Z,53.79
2024-01-27T10:14:54.116Z,53.87
2024-01-27T10:17:25.358Z,53.85
2024-01-27T10:20:11.696Z,53.79
2024-01-27T10:22:44.573Z,53.86
2024-01-27T10:25:13.705Z,53.93
2024-01-27T10:27:41.518Z,54.07
2024-01-27T10:30:18.093Z,53.68
2024-01-27T10:32:56.552Z,53.95
2024-01-27T10:35:25.107Z,53.89
2024-01-27T10:37:59.463Z,53.88
2024-01-27T10:40:28.620Z,53.95
2024-01-27T10:43:07.657Z,53.89
2024-01-27T10:45:40.905Z,54.09
2024-01-27T10:48:14.944Z,54.20
2024-01-27T10:50:46.522Z,53.89
2024-01-27T10:53:32.740Z,54.15
2024-01-27T10:56:00.796Z,54.03
2024-01-27T10:58:31.306Z,54.41
2024-01-27T11:01:01.262Z,54.45
2024-01-27T11:03:30.673Z,54.07
2024-01-27T11:06:00.111Z,54.40
2024-01-27T11:08:31.424Z,56.38
2024-01-27T11:11:00.972Z,55.06
2024-01-27T11:13:35.498Z,55.50
2024-01-27T11:16:04.185Z,55.54
2024-01-27T11:18:31.869Z,55.09
2024-01-27T11:21:01.683Z,55.13
2024-01-27T11:23:35.679Z,54.74
2024-01-27T11:26:11.931Z,54.87
2024-01-27T11:28:42.878Z,54.83
2024-01-27T11:31:11.883Z,55.10
2024-01-27T11:33:49.980Z,54.76
2024-01-27T11:36:26.225Z,54.80
2024-01-27T11:38:57.369Z,54.77
2024-01-27T11:41:33.716Z,54.61
2024-01-27T11:44:04.253Z,54.37
2024-01-27T11:46:36.187Z,54.51
2024-01-27T11:49:06.390Z,57.46
2024-01-27T11:51:36.323Z,54.67
2024-01-27T11:54:04.349Z,55.21
2024-01-27T11:56:33.125Z,55.72
2024-01-27T11:59:00.850Z,55.64
2024-01-27T12:01:28.487Z,55.29
2024-01-27T12:03:56.758Z,55.29
2024-01-27T12:06:25.528Z,54.95
2024-01-27T12:09:00.493Z,55.22
2024-01-27T12:11:28.245Z,55.16
2024-01-27T12:13:57.522Z,54.93
2024-01-27T12:16:25.039Z,55.07
2024-01-27T12:18:59.791Z,55.03
2024-01-27T12:21:28.316Z,54.90
2024-01-27T12:24:00.491Z,54.77
2024-01-27T12:26:32.685Z,54.61
2024-01-27T12:29:01.450Z,54.62
2024-01-27T12:31:29.121Z,54.67
2024-01-27T12:34:01.156Z,54.13
2024-01-27T12:36:28.992Z,54.61
2024-01-27T12:39:01.854Z,54.33
2024-01-27T12:41:31.210Z,53.87
2024-01-27T12:43:59.381Z,53.97
2024-01-27T12:46:27.950Z,53.75
2024-01-27T12:48:55.526Z,53.55
2024-01-27T12:51:23.395Z,53.92
2024-01-27T12:53:51.266Z,52.77
2024-01-27T12:56:18.248Z,53.53
2024-01-27T12:58:46.918Z,52.53
2024-01-27T13:01:17.354Z,53.05
2024-01-27T13:03:46.204Z,53.18
2024-01-27T13:06:15.288Z,52.86
2024-01-27T13:08:44.070Z,53.08
2024-01-27T13:11:14.192Z,55.60
2024-01-27T13:13:43.479Z,54.02
2024-01-27T13:16:11.101Z,53.84
2024-01-27T13:18:39.622Z,54.01
2024-01-27T13:21:07.815Z,53.75
2024-01-27T13:23:36.659Z,53.79
2024-01-27T13:26:14.041Z,53.93
2024-01-27T13:28:47.691Z,53.25
2024-01-27T13:31:14.844Z,53.18
2024-01-27T13:33:43.615Z,53.04
2024-01-27T13:36:11.129Z,52.82
2024-01-27T13:38:46.358Z,52.72
2024-01-27T13:41:15.082Z,52.53
2024-01-27T13:43:44.301Z,52.22
2024-01-27T13:46:13.319Z,52.26
2024-01-27T13:48:42.029Z,52.16
2024-01-27T13:51:11.908Z,52.16
2024-01-27T13:53:46.589Z,53.97
2024-01-27T13:56:16.356Z,53.65
2024-01-27T13:58:45.432Z,53.70
2024-01-27T14:01:14.759Z,52.88
2024-01-27T14:03:48.439Z,53.13
2024-01-27T14:06:16.745Z,52.42
2024-01-27T14:08:47.499Z,52.58
2024-01-27T14:11:16.220Z,52.22
2024-01-27T14:13:45.643Z,52.10
2024-01-27T14:16:13.485Z,52.22
2024-01-27T14:18:40.808Z,51.99
2024-01-27T14:21:08.885Z,52.20
2024-01-27T14:23:36.879Z,51.66
2024-01-27T14:26:04.891Z,52.44
2024-01-27T14:28:32.252Z,51.33
2024-01-27T14:31:00.805Z,50.97
2024-01-27T14:33:28.573Z,50.94
2024-01-27T14:35:56.447Z,50.59
2024-01-27T14:38:25.010Z,51.01
2024-01-27T14:40:52.911Z,51.79
2024-01-27T14:43:20.819Z,51.42
2024-01-27T14:46:03.555Z,52.04
2024-01-27T14:48:32.326Z,52.18
2024-01-27T14:51:00.923Z,52.05
2024-01-27T14:53:33.093Z,52.28
2024-01-27T14:56:04.801Z,52.37
2024-01-27T14:58:33.341Z,52.38
2024-01-27T15:01:00.951Z,52.58
2024-01-27T15:03:29.589Z,52.42
2024-01-27T15:06:00.283Z,52.52
2024-01-27T15:08:28.124Z,52.50
2024-01-27T15:10:55.417Z,52.57
2024-01-27T15:13:25.740Z,52.10
2024-01-27T15:15:54.561Z,52.41
2024-01-27T15:18:23.637Z,52.56
2024-01-27T15:20:55.523Z,52.52
2024-01-27T15:23:26.289Z,52.94
2024-01-27T15:25:54.850Z,53.09
2024-01-27T15:28:22.710Z,52.69
2024-01-27T15:30:50.770Z,53.53
2024-01-27T15:33:19.175Z,53.25
2024-01-27T15:35:48.726Z,53.25
2024-01-27T15:38:15.937Z,53.15
2024-01-27T15:40:45.079Z,53.29
2024-01-27T15:43:13.480Z,52.84
2024-01-27T15:45:41.921Z,53.42
2024-01-27T15:48:11.534Z,53.24
2024-01-27T15:50:40.166Z,52.88
2024-01-27T15:53:09.540Z,53.30
2024-01-27T15:55:36.871Z,53.34
2024-01-27T15:58:04.378Z,53.80
2024-01-27T16:00:31.578Z,53.79
2024-01-27T16:02:58.929Z,53.57
2024-01-27T16:05:26.975Z,53.53
2024-01-27T16:07:55.062Z,53.91
2024-01-27T16:10:22.065Z,53.82
2024-01-27T16:12:49.886Z,54.19
2024-01-27T16:15:17.506Z,53.72
2024-01-27T16:17:45.043Z,53.94
2024-01-27T16:20:13.010Z,53.83
2024-01-27T16:22:40.415Z,54.14
2024-01-27T16:25:08.290Z,54.23
2024-01-27T16:27:36.869Z,54.09
2024-01-27T16:30:05.061Z,54.11
2024-01-27T16:32:32.910Z,54.09
2024-01-27T16:34:59.809Z,53.97
2024-01-27T16:37:26.639Z,53.89
2024-01-27T16:39:56.234Z,55.04
2024-01-27T16:42:23.721Z,55.17
2024-01-27T16:44:52.174Z,54.64
2024-01-27T16:47:22.742Z,55.05
2024-01-27T16:49:50.426Z,55.64
2024-01-27T16:52:17.497Z,55.36
2024-01-27T16:54:44.941Z,55.47
2024-01-27T16:57:12.370Z,55.46
2024-01-27T16:59:40.600Z,55.44
2024-01-27T17:02:08.832Z,55.73
2024-01-27T17:04:36.972Z,55.58
2024-01-27T17:07:05.101Z,55.47
2024-01-27T17:09:32.906Z,55.65
2024-01-27T17:12:00.819Z,55.64
2024-01-27T17:14:28.533Z,55.65
2024-01-27T17:16:56.162Z,55.60
2024-01-27T17:19:24.322Z,55.32
2024-01-27T17:21:52.467Z,55.66
2024-01-27T17:24:20.138Z,55.37
2024-01-27T17:26:47.552Z,55.46
2024-01-27T17:29:14.846Z,55.62
2024-01-27T17:31:42.703Z,55.50
2024-01-27T17:34:10.614Z,55.31
2024-01-27T17:36:39.215Z,55.48
2024-01-27T17:39:07.402Z,55.30
2024-01-27T17:41:35.000Z,55.47
2024-01-27T17:44:02.488Z,55.09
2024-01-27T17:46:31.192Z,55.20
2024-01-27T17:48:58.712Z,55.21
2024-01-27T17:51:27.406Z,55.28
2024-01-27T17:53:55.431Z,55.06
2024-01-27T17:56:24.781Z,55.39
2024-01-27T17:58:52.667Z,55.34
2024-01-27T18:01:20.753Z,55.29
2024-01-27T18:03:48.246Z,55.20
2024-01-27T18:06:16.050Z,55.29
2024-01-27T18:08:44.016Z,55.10
2024-01-27T18:11:11.572Z,55.20
2024-01-27T18:13:39.031Z,55.29
2024-01-27T18:16:08.365Z,55.19
2024-01-27T18:18:35.943Z,55.13
2024-01-27T18:21:03.063Z,54.95
2024-01-27T18:23:30.112Z,54.92
2024-01-27T18:25:57.526Z,54.95
2024-01-27T18:28:24.618Z,55.31
2024-01-27T18:30:52.158Z,55.13
2024-01-27T18:33:20.958Z,55.07
2024-01-27T18:35:48.440Z,55.04
2024-01-27T18:38:15.957Z,55.04
2024-01-27T18:40:44.293Z,55.29
2024-01-27T18:43:12.023Z,55.22
2024-01-27T18:45:40.218Z,55.05
2024-01-27T18:48:08.662Z,54.93
2024-01-27T18:50:38.055Z,54.89
2024-01-27T18:53:06.576Z,54.91
2024-01-27T18:55:38.930Z,54.99
2024-01-27T18:58:10.270Z,54.85
2024-01-27T19:00:38.617Z,55.06
2024-01-27T19:03:08.321Z,54.83
2024-01-27T19:05:36.643Z,54.93
2024-01-27T19:08:05.314Z,54.91
2024-01-27T19:10:33.068Z,55.13
2024-01-27T19:13:00.560Z,55.20
2024-01-27T19:15:29.802Z,54.87
2024-01-27T19:17:57.661Z,55.20
2024-01-27T19:20:25.785Z,55.09
2024-01-27T19:22:52.744Z,55.12
2024-01-27T19:25:20.462Z,55.17
2024-01-27T19:27:48.301Z,55.01
2024-01-27T19:30:15.925Z,55.03
2024-01-27T19:32:44.249Z,55.17
2024-01-27T19:35:13.223Z,55.33
2024-01-27T19:37:40.745Z,54.99
2024-01-27T19:40:10.815Z,54.72
2024-01-27T19:42:38.362Z,55.17
2024-01-27T19:45:08.902Z,54.67
2024-01-27T19:47:36.376Z,55.18
2024-01-27T19:50:04.337Z,54.83
2024-01-27T19:52:32.033Z,54.92
2024-01-27T19:55:01.888Z,54.48
2024-01-27T19:57:30.762Z,54.87
2024-01-27T19:59:58.662Z,54.69
2024-01-27T20:02:27.757Z,54.95
2024-01-27T20:04:55.495Z,55.04
2024-01-27T20:07:23.241Z,54.88
2024-01-27T20:09:50.837Z,54.68
2024-01-27T20:12:18.302Z,54.76
2024-01-27T20:14:46.339Z,54.65
2024-01-27T20:17:14.017Z,54.43
2024-01-27T20:19:41.440Z,54.90
2024-01-27T20:22:09.296Z,54.63
2024-01-27T20:24:36.623Z,54.56
2024-01-27T20:27:08.114Z,54.43
2024-01-27T20:29:36.343Z,54.83
2024-01-27T20:32:06.833Z,54.48
2024-01-27T20:34:36.559Z,54.65
2024-01-27T20:37:03.718Z,54.82
2024-01-27T20:39:32.106Z,54.57
2024-01-27T20:41:59.884Z,54.19
2024-01-27T20:44:27.615Z,54.57
2024-01-27T20:46:54.895Z,54.37
2024-01-27T20:49:22.348Z,54.30
2024-01-27T20:51:52.361Z,54.55
2024-01-27T20:54:19.859Z,54.29
2024-01-27T20:56:47.446Z,54.43
2024-01-27T20:59:14.745Z,54.33
2024-01-27T21:01:42.197Z,54.28
2024-01-27T21:04:11.947Z,54.22
2024-01-27T21:06:39.975Z,54.17
2024-01-27T21:09:08.377Z,54.31
2024-01-27T21:11:35.671Z,54.37
2024-01-27T21:14:03.558Z,54.39
2024-01-27T21:16:33.908Z,54.03
2024-01-27T21:19:03.024Z,54.19
2024-01-27T21:21:30.155Z,54.01
2024-01-27T21:23:57.770Z,54.03
2024-01-27T21:26:25.323Z,54.22
2024-01-27T21:28:55.069Z,54.05
2024-01-27T21:31:22.635Z,54.22
2024-01-27T21:33:50.978Z,53.95
2024-01-27T21:36:18.299Z,54.01
2024-01-27T21:38:46.055Z,53.94
2024-01-27T21:41:13.455Z,54.01
2024-01-27T21:43:40.803Z,54.05
2024-01-27T21:46:09.224Z,54.01
2024-01-27T21:48:37.652Z,53.97
2024-01-27T21:51:05.505Z,53.65
2024-01-27T21:53:34.573Z,53.63
2024-01-27T21:56:01.798Z,53.61
2024-01-27T21:58:29.544Z,53.61
2024-01-27T22:00:57.082Z,53.47
2024-01-27T22:03:24.414Z,53.35
2024-01-27T22:05:52.228Z,53.53
2024-01-27T22:08:19.601Z,53.32
2024-01-27T22:10:47.557Z,53.22
2024-01-27T22:13:15.274Z,53.55
2024-01-27T22:15:43.723Z,53.13
2024-01-27T22:18:11.525Z,53.07
2024-01-27T22:20:38.946Z,53.25
2024-01-27T22:23:06.621Z,53.12
2024-01-27T22:25:35.173Z,53.11
2024-01-27T22:28:02.263Z,53.10
2024-01-27T22:30:30.413Z,53.16
2024-01-27T22:32:57.933Z,52.96
2024-01-27T22:35:25.756Z,52.72
2024-01-27T22:37:52.727Z,53.23
2024-01-27T22:40:21.847Z,52.88
2024-01-27T22:42:49.858Z,53.17
2024-01-27T22:45:17.121Z,53.07
2024-01-27T22:47:45.926Z,52.95
2024-01-27T22:50:14.025Z,52.94
2024-01-27T22:52:42.240Z,52.92
2024-01-27T22:55:10.081Z,52.92
2024-01-27T22:57:38.243Z,53.01
2024-01-27T23:00:13.415Z,52.77
2024-01-27T23:02:41.392Z,53.26
2024-01-27T23:05:09.405Z,53.02
2024-01-27T23:07:38.104Z,52.84
2024-01-27T23:10:06.136Z,52.54
2024-01-27T23:12:33.505Z,52.82
2024-01-27T23:15:00.883Z,52.74
2024-01-27T23:17:30.200Z,52.84
2024-01-27T23:19:58.459Z,52.90
2024-01-27T23:22:25.958Z,52.97
2024-01-27T23:24:54.506Z,52.92
2024-01-27T23:27:22.178Z,52.82
2024-01-27T23:29:51.064Z,53.00
2024-01-27T23:32:18.356Z,52.80
2024-01-27T23:34:46.564Z,52.80
2024-01-27T23:37:14.072Z,52.68
2024-01-27T23:39:42.407Z,52.72
2024-01-27T23:42:09.730Z,52.88
2024-01-27T23:44:36.772Z,52.80
2024-01-27T23:47:04.106Z,52.92
2024-01-27T23:49:31.724Z,53.08
2024-01-27T23:51:59.440Z,53.19
2024-01-27T23:54:26.666Z,52.77
2024-01-27T23:56:55.929Z,53.06
2024-01-27T23:59:23.204Z,52.88
